Akwa Ibom International Airport


Codes: DNAI/QUO
Name: Akwa Ibom International Airport
City: Uyo
Country: Nigeria
Elevation: 170 ft.
Website:
Wikipedia:

Photos at Akwa Ibom International Airport


   Photos courtesy of SpottingLog. You can add your own sightings and photos by signing up for a free trial today.



No photos found.

Weather at Akwa Ibom International Airport


Time (UTC)DescriptionTempratureWindCloud coverageVisibilityPressureHumidity
21-Jun-2024 12:00Light Rain27°C2 mph, SW100%10000m1014hPa81%
21-Jun-2024 15:00Light Rain28°C7 mph, SW100%10000m1012hPa78%
21-Jun-2024 18:00Overcast Clouds25°C4 mph, SW100%10000m1011hPa88%
21-Jun-2024 21:00Overcast Clouds24°C4 mph, SW100%10000m1013hPa93%
22-Jun-2024 00:00Light Rain23°C2 mph, SW100%10000m1013hPa97%
22-Jun-2024 03:00Light Rain23°C2 mph, W81%10000m1012hPa97%
22-Jun-2024 06:00Broken Clouds24°C2 mph, NW70%10000m1014hPa95%
22-Jun-2024 09:00Light Rain28°C2 mph, NW81%10000m1015hPa76%
22-Jun-2024 12:00Moderate Rain29°C2 mph, S69%10000m1012hPa73%
22-Jun-2024 15:00Moderate Rain27°C2 mph, S92%10000m1011hPa82%
22-Jun-2024 18:00Moderate Rain25°C2 mph, SW96%10000m1012hPa91%
22-Jun-2024 21:00Broken Clouds24°C4 mph, SW65%10000m1013hPa95%
23-Jun-2024 00:00Broken Clouds24°C2 mph, SW76%10000m1013hPa96%
23-Jun-2024 03:00Light Rain24°C2 mph, S100%10000m1012hPa95%
23-Jun-2024 06:00Light Rain24°C2 mph, S100%10000m1013hPa93%
23-Jun-2024 09:00Light Rain28°C2 mph, S97%10000m1014hPa77%
23-Jun-2024 12:00Light Rain31°C7 mph, S98%10000m1011hPa65%
23-Jun-2024 15:00Light Rain29°C7 mph, SW90%10000m1010hPa75%
23-Jun-2024 18:00Light Rain25°C4 mph, SW89%10000m1012hPa91%
23-Jun-2024 21:00Overcast Clouds25°C2 mph, SW86%10000m1013hPa94%
24-Jun-2024 00:00Light Rain24°C4 mph, SW84%10000m1012hPa96%
24-Jun-2024 03:00Light Rain24°C2 mph, SW92%10000m1012hPa96%
24-Jun-2024 06:00Light Rain24°C2 mph, W95%10000m1013hPa95%
24-Jun-2024 09:00Moderate Rain28°C2 mph, SW99%10000m1014hPa80%
24-Jun-2024 12:00Moderate Rain28°C7 mph, S99%10000m1012hPa79%
24-Jun-2024 15:00Light Rain28°C7 mph, SW97%10000m1010hPa81%
24-Jun-2024 18:00Light Rain25°C7 mph, SW99%10000m1011hPa90%
24-Jun-2024 21:00Overcast Clouds25°C4 mph, SW100%10000m1013hPa93%
25-Jun-2024 00:00Light Rain24°C2 mph, SW100%10000m1012hPa94%
25-Jun-2024 03:00Moderate Rain23°C2 mph, W100%10000m1011hPa97%
25-Jun-2024 06:00Light Rain24°C2 mph, W100%10000m1013hPa94%
25-Jun-2024 09:00Moderate Rain24°C2 mph, W100%10000m1014hPa96%
25-Jun-2024 12:00Light Rain26°C4 mph, SW100%10000m1012hPa86%
25-Jun-2024 15:00Light Rain26°C4 mph, SW100%10000m1010hPa87%
25-Jun-2024 18:00Moderate Rain24°C4 mph, SW100%9013m1011hPa95%
25-Jun-2024 21:00Moderate Rain24°C2 mph, W100%10000m1013hPa95%
26-Jun-2024 00:00Light Rain23°C2 mph, N100%10000m1012hPa97%
26-Jun-2024 03:00Overcast Clouds23°C0 mph, W100%10000m1011hPa97%
26-Jun-2024 06:00Overcast Clouds23°C2 mph, NW100%10000m1012hPa96%
26-Jun-2024 09:00Overcast Clouds26°C2 mph, S100%10000m1013hPa88%